createdAt,value
2022-11-17T00:01:24.416Z,12.10
2022-11-17T00:03:51.713Z,12.28
2022-11-17T00:06:20.479Z,12.23
2022-11-17T00:08:47.881Z,12.36
2022-11-17T00:11:14.852Z,12.39
2022-11-17T00:14:00.176Z,12.43
2022-11-17T00:16:26.834Z,12.38
2022-11-17T00:19:12.311Z,12.24
2022-11-17T00:21:38.990Z,12.30
2022-11-17T00:24:06.825Z,12.32
2022-11-17T00:26:35.809Z,12.33
2022-11-17T00:29:05.091Z,12.40
2022-11-17T00:31:52.561Z,12.10
2022-11-17T00:34:21.183Z,12.12
2022-11-17T00:36:52.511Z,12.30
2022-11-17T00:39:21.279Z,12.25
2022-11-17T00:41:47.989Z,12.34
2022-11-17T00:44:15.231Z,12.11
2022-11-17T00:46:43.037Z,12.19
2022-11-17T00:49:11.363Z,12.18
2022-11-17T00:51:38.745Z,12.20
2022-11-17T00:54:07.024Z,12.09
2022-11-17T00:56:34.211Z,12.10
2022-11-17T00:59:00.963Z,12.10
2022-11-17T01:01:28.119Z,11.97
2022-11-17T01:04:02.864Z,11.97
2022-11-17T01:06:44.952Z,12.06
2022-11-17T01:09:23.435Z,12.04
2022-11-17T01:11:52.381Z,12.07
2022-11-17T01:14:27.894Z,12.04
2022-11-17T01:16:54.813Z,12.17
2022-11-17T01:19:23.121Z,12.02
2022-11-17T01:21:50.297Z,12.05
2022-11-17T01:24:17.751Z,12.17
2022-11-17T01:26:45.500Z,12.12
2022-11-17T01:29:15.052Z,12.10
2022-11-17T01:31:46.010Z,11.92
2022-11-17T01:34:13.326Z,11.78
2022-11-17T01:37:01.282Z,11.85
2022-11-17T01:39:29.358Z,12.10
2022-11-17T01:41:57.132Z,12.06
2022-11-17T01:44:36.184Z,11.87
2022-11-17T01:47:04.411Z,12.01
2022-11-17T01:49:31.842Z,12.00
2022-11-17T01:52:07.265Z,12.02
2022-11-17T01:54:40.409Z,11.95
2022-11-17T01:57:14.549Z,12.02
2022-11-17T01:59:50.686Z,11.86
2022-11-17T02:02:17.717Z,11.93
2022-11-17T02:04:50.404Z,11.92
2022-11-17T02:07:24.641Z,11.94
2022-11-17T02:09:53.590Z,11.99
2022-11-17T02:12:22.203Z,11.85
2022-11-17T02:14:49.716Z,11.72
2022-11-17T02:17:18.176Z,12.10
2022-11-17T02:20:03.016Z,11.76
2022-11-17T02:23:00.184Z,11.94
2022-11-17T02:25:33.723Z,12.14
2022-11-17T02:28:21.973Z,12.07
2022-11-17T02:31:24.070Z,12.11
2022-11-17T02:34:05.176Z,11.97
2022-11-17T02:36:44.902Z,11.98
2022-11-17T02:39:34.981Z,11.95
2022-11-17T02:42:14.020Z,12.24
2022-11-17T02:44:57.868Z,12.19
2022-11-17T02:47:29.705Z,11.88
2022-11-17T02:50:03.210Z,11.95
2022-11-17T02:52:31.066Z,11.78
2022-11-17T02:55:09.938Z,12.06
2022-11-17T02:57:39.465Z,12.02
2022-11-17T03:00:08.003Z,11.70
2022-11-17T03:03:08.466Z,11.79
2022-11-17T03:05:41.966Z,11.84
2022-11-17T03:08:36.809Z,11.81
2022-11-17T03:11:06.969Z,12.02
2022-11-17T03:13:48.486Z,11.76
2022-11-17T03:16:49.953Z,11.78
2022-11-17T03:19:19.553Z,11.93
2022-11-17T03:22:01.127Z,11.67
2022-11-17T03:24:33.661Z,11.67
2022-11-17T03:27:08.195Z,11.68
2022-11-17T03:29:39.282Z,11.73
2022-11-17T03:32:08.020Z,11.75
2022-11-17T03:34:41.132Z,11.69
2022-11-17T03:37:12.173Z,11.71
2022-11-17T03:39:43.270Z,11.82
2022-11-17T03:42:18.705Z,11.63
2022-11-17T03:44:50.874Z,11.41
2022-11-17T03:47:21.034Z,11.60
2022-11-17T03:50:16.489Z,11.66
2022-11-17T03:52:44.595Z,11.82
2022-11-17T03:55:12.221Z,11.70
2022-11-17T03:57:52.678Z,11.75
2022-11-17T04:00:23.542Z,11.84
2022-11-17T04:02:55.735Z,11.69
2022-11-17T04:05:22.805Z,11.67
2022-11-17T04:07:49.528Z,11.80
2022-11-17T04:10:21.951Z,11.29
2022-11-17T04:13:08.167Z,11.69
2022-11-17T04:15:55.277Z,11.54
2022-11-17T04:18:23.420Z,11.73
2022-11-17T04:20:52.250Z,11.61
2022-11-17T04:23:19.328Z,11.62
2022-11-17T04:26:12.591Z,11.52
2022-11-17T04:28:46.627Z,11.21
2022-11-17T04:31:23.590Z,11.33
2022-11-17T04:33:55.763Z,11.45
2022-11-17T04:36:26.901Z,11.42
2022-11-17T04:38:56.664Z,11.42
2022-11-17T04:41:43.965Z,11.25
2022-11-17T04:44:13.365Z,11.34
2022-11-17T04:46:41.272Z,11.26
2022-11-17T04:49:08.354Z,11.39
2022-11-17T04:51:35.882Z,11.55
2022-11-17T04:54:04.290Z,11.59
2022-11-17T04:56:31.435Z,11.37
2022-11-17T04:58:58.449Z,11.43
2022-11-17T05:01:26.479Z,11.30
2022-11-17T05:03:55.254Z,11.16
2022-11-17T05:06:26.026Z,11.24
2022-11-17T05:08:57.214Z,11.35
2022-11-17T05:11:45.350Z,11.05
2022-11-17T05:14:13.716Z,10.98
2022-11-17T05:17:00.523Z,11.30
2022-11-17T05:19:32.528Z,11.17
2022-11-17T05:21:59.718Z,11.20
2022-11-17T05:24:26.743Z,11.38
2022-11-17T05:26:54.142Z,11.29
2022-11-17T05:29:22.731Z,11.43
2022-11-17T05:31:49.513Z,11.30
2022-11-17T05:34:17.785Z,11.37
2022-11-17T05:36:44.814Z,11.23
2022-11-17T05:39:11.530Z,11.04
2022-11-17T05:41:39.788Z,11.22
2022-11-17T05:44:06.417Z,10.99
2022-11-17T05:46:33.247Z,11.15
2022-11-17T05:49:00.147Z,11.12
2022-11-17T05:51:27.015Z,11.11
2022-11-17T05:53:53.663Z,11.11
2022-11-17T05:56:35.586Z,11.31
2022-11-17T05:59:28.287Z,11.28
2022-11-17T06:02:00.805Z,11.28
2022-11-17T06:04:28.560Z,11.37
2022-11-17T06:06:59.333Z,11.59
2022-11-17T06:09:32.728Z,11.27
2022-11-17T06:12:05.306Z,11.45
2022-11-17T06:14:33.406Z,11.19
2022-11-17T06:17:05.032Z,11.44
2022-11-17T06:19:39.607Z,11.46
2022-11-17T06:22:14.566Z,11.28
2022-11-17T06:24:44.653Z,11.35
2022-11-17T06:27:15.978Z,11.26
2022-11-17T06:29:44.835Z,11.23
2022-11-17T06:32:14.176Z,11.10
2022-11-17T06:34:42.859Z,11.11
2022-11-17T06:37:11.309Z,11.09
2022-11-17T06:39:38.064Z,11.07
2022-11-17T06:42:04.711Z,11.13
2022-11-17T06:44:31.377Z,11.33
2022-11-17T06:46:57.975Z,11.25
2022-11-17T06:49:24.838Z,11.34
2022-11-17T06:51:52.173Z,11.37
2022-11-17T06:54:21.760Z,11.37
2022-11-17T06:56:49.676Z,11.48
2022-11-17T06:59:17.069Z,11.45
2022-11-17T07:01:43.845Z,11.50
2022-11-17T07:04:10.420Z,11.58
2022-11-17T07:06:37.457Z,11.44
2022-11-17T07:09:05.347Z,11.38
2022-11-17T07:11:36.152Z,11.44
2022-11-17T07:14:03.519Z,11.39
2022-11-17T07:16:31.008Z,11.49
2022-11-17T07:18:59.210Z,11.52
2022-11-17T07:21:26.121Z,11.62
2022-11-17T07:23:53.077Z,11.78
2022-11-17T07:26:19.778Z,11.73
2022-11-17T07:28:47.631Z,11.55
2022-11-17T07:31:14.446Z,11.92
2022-11-17T07:33:41.126Z,11.92
2022-11-17T07:36:10.642Z,11.75
2022-11-17T07:38:39.396Z,11.55
2022-11-17T07:41:08.713Z,11.48
2022-11-17T07:43:36.249Z,11.53
2022-11-17T07:46:07.249Z,11.76
2022-11-17T07:48:34.971Z,11.96
2022-11-17T07:51:03.388Z,12.09
2022-11-17T07:53:31.644Z,12.13
2022-11-17T07:56:05.197Z,12.15
2022-11-17T07:58:32.972Z,11.80
2022-11-17T08:01:04.936Z,12.00
2022-11-17T08:03:31.679Z,12.03
2022-11-17T08:06:05.181Z,12.00
2022-11-17T08:08:32.558Z,12.03
2022-11-17T08:11:05.148Z,11.92
2022-11-17T08:13:32.790Z,12.03
2022-11-17T08:15:59.809Z,12.05
2022-11-17T08:18:27.290Z,12.11
2022-11-17T08:21:04.731Z,12.07
2022-11-17T08:23:32.073Z,12.05
2022-11-17T08:25:58.994Z,12.00
2022-11-17T08:28:25.762Z,11.75
2022-11-17T08:30:52.487Z,12.08
2022-11-17T08:33:19.129Z,11.89
2022-11-17T08:35:45.739Z,11.80
2022-11-17T08:38:15.188Z,11.81
2022-11-17T08:40:42.543Z,11.86
2022-11-17T08:43:09.327Z,11.96
2022-11-17T08:45:36.297Z,12.27
2022-11-17T08:48:04.008Z,12.36
2022-11-17T08:50:30.660Z,12.20
2022-11-17T08:52:57.261Z,12.22
2022-11-17T08:55:26.159Z,12.26
2022-11-17T08:57:52.971Z,12.33
2022-11-17T09:00:21.866Z,12.40
2022-11-17T09:02:48.906Z,12.41
2022-11-17T09:05:15.587Z,12.26
2022-11-17T09:07:42.388Z,12.27
2022-11-17T09:10:10.957Z,12.41
2022-11-17T09:12:37.817Z,12.05
2022-11-17T09:15:05.449Z,12.49
2022-11-17T09:17:32.888Z,12.38
2022-11-17T09:20:00.009Z,12.49
2022-11-17T09:22:27.752Z,12.43
2022-11-17T09:24:55.745Z,12.49
2022-11-17T09:27:22.809Z,12.52
2022-11-17T09:29:49.428Z,12.45
2022-11-17T09:32:16.890Z,12.43
2022-11-17T09:34:44.215Z,12.41
2022-11-17T09:37:10.915Z,12.40
2022-11-17T09:39:37.641Z,12.43
2022-11-17T09:42:04.742Z,12.39
2022-11-17T09:44:44.798Z,12.54
2022-11-17T09:47:34.720Z,12.45
2022-11-17T09:50:16.065Z,12.56
2022-11-17T09:53:19.347Z,12.30
2022-11-17T09:55:50.412Z,12.39
2022-11-17T09:58:57.723Z,12.54
2022-11-17T10:01:29.022Z,12.71
2022-11-17T10:04:00.171Z,12.81
2022-11-17T10:06:29.346Z,12.84
2022-11-17T10:09:26.217Z,12.61
2022-11-17T10:11:57.179Z,12.61
2022-11-17T10:14:28.589Z,12.72
2022-11-17T10:16:58.178Z,12.77
2022-11-17T10:19:27.433Z,12.91
2022-11-17T10:22:06.289Z,12.84
2022-11-17T10:24:37.141Z,12.92
2022-11-17T10:27:07.002Z,12.91
2022-11-17T10:32:08.643Z,12.88
2022-11-17T10:34:41.488Z,13.03
2022-11-17T10:37:14.616Z,13.10
2022-11-17T10:39:43.350Z,13.12
2022-11-17T10:42:23.227Z,13.23
2022-11-17T10:44:56.268Z,13.22
2022-11-17T10:47:31.023Z,13.09
2022-11-17T10:50:19.864Z,13.34
2022-11-17T10:52:48.118Z,13.15
2022-11-17T10:55:28.498Z,13.19
2022-11-17T10:58:04.383Z,13.05
2022-11-17T11:00:34.082Z,13.33
2022-11-17T11:03:18.776Z,13.34
2022-11-17T11:05:55.493Z,13.28
2022-11-17T11:08:25.135Z,13.42
2022-11-17T11:10:56.588Z,13.19
2022-11-17T11:13:35.659Z,13.46
2022-11-17T11:16:02.836Z,13.50
2022-11-17T11:18:31.032Z,13.56
2022-11-17T11:21:24.009Z,13.39
2022-11-17T11:24:14.302Z,13.31
2022-11-17T11:27:16.173Z,13.38
2022-11-17T11:30:03.195Z,13.34
2022-11-17T11:32:47.737Z,13.40
2022-11-17T11:35:32.712Z,13.48
2022-11-17T11:38:06.091Z,13.69
2022-11-17T11:40:41.448Z,13.83
2022-11-17T11:43:14.458Z,13.88
2022-11-17T11:46:18.327Z,13.73
2022-11-17T11:48:47.908Z,13.85
2022-11-17T11:51:19.535Z,14.10
2022-11-17T11:54:24.631Z,13.94
2022-11-17T11:56:52.117Z,13.78
2022-11-17T11:59:22.142Z,13.74
2022-11-17T12:02:16.964Z,13.73
2022-11-17T12:05:07.141Z,13.60
2022-11-17T12:07:56.127Z,13.56
2022-11-17T12:10:47.263Z,13.58
2022-11-17T12:13:18.181Z,13.43
2022-11-17T12:15:45.230Z,13.27
2022-11-17T12:18:28.997Z,13.32
2022-11-17T12:21:11.773Z,13.27
2022-11-17T12:24:17.812Z,13.39
2022-11-17T12:26:44.938Z,13.70
2022-11-17T12:29:26.985Z,13.81
2022-11-17T12:31:59.836Z,13.86
2022-11-17T12:34:30.719Z,13.70
2022-11-17T12:37:21.705Z,13.66
2022-11-17T12:39:55.282Z,13.69
2022-11-17T12:42:29.011Z,13.66
2022-11-17T12:45:00.293Z,13.61
2022-11-17T12:47:31.789Z,13.56
2022-11-17T12:50:17.260Z,13.68
2022-11-17T12:52:43.916Z,13.71
2022-11-17T12:55:23.058Z,13.77
2022-11-17T12:57:58.215Z,13.73
2022-11-17T13:00:25.898Z,13.70
2022-11-17T13:03:12.095Z,13.68
2022-11-17T13:05:38.996Z,13.68
2022-11-17T13:08:14.851Z,13.77
2022-11-17T13:10:44.982Z,13.60
2022-11-17T13:13:19.850Z,13.59
2022-11-17T13:15:52.431Z,13.59
2022-11-17T13:18:27.863Z,13.53
2022-11-17T13:20:54.601Z,13.60
2022-11-17T13:23:25.936Z,13.59
2022-11-17T13:26:20.758Z,13.55
2022-11-17T13:28:49.439Z,13.53
2022-11-17T13:31:25.508Z,13.58
2022-11-17T13:34:21.070Z,13.37
2022-11-17T13:36:55.823Z,13.38
2022-11-17T13:39:27.131Z,13.20
2022-11-17T13:41:55.356Z,13.00
2022-11-17T13:44:29.296Z,13.02
2022-11-17T13:46:56.077Z,12.90
2022-11-17T13:49:36.878Z,12.60
2022-11-17T13:52:05.342Z,12.56
2022-11-17T13:54:35.341Z,12.62
2022-11-17T13:57:08.605Z,12.63
2022-11-17T13:59:39.561Z,12.42
2022-11-17T14:02:21.415Z,12.31
2022-11-17T14:05:19.768Z,12.25
2022-11-17T14:07:46.851Z,12.29
2022-11-17T14:10:19.596Z,12.27
2022-11-17T14:12:51.274Z,12.11
2022-11-17T14:15:25.074Z,11.89
2022-11-17T14:17:56.375Z,11.97
2022-11-17T14:20:26.107Z,11.94
2022-11-17T14:23:05.839Z,11.82
2022-11-17T14:25:40.830Z,11.78
2022-11-17T14:28:15.464Z,11.64
2022-11-17T14:30:43.589Z,11.43
2022-11-17T14:33:13.593Z,11.63
2022-11-17T14:35:41.289Z,11.60
2022-11-17T14:38:17.788Z,11.62
2022-11-17T14:40:44.691Z,11.57
2022-11-17T14:43:11.960Z,11.71
2022-11-17T14:45:38.766Z,11.78
2022-11-17T14:48:08.780Z,11.72
2022-11-17T14:50:35.597Z,11.78
2022-11-17T14:53:02.211Z,11.76
2022-11-17T14:55:28.796Z,11.77
2022-11-17T14:57:55.510Z,11.69
2022-11-17T15:00:22.305Z,11.74
2022-11-17T15:02:49.407Z,11.76
2022-11-17T15:05:16.229Z,11.64
2022-11-17T15:07:44.125Z,11.48
2022-11-17T15:10:13.994Z,11.54
2022-11-17T15:12:41.552Z,11.62
2022-11-17T15:15:08.817Z,11.56
2022-11-17T15:17:35.469Z,11.78
2022-11-17T15:20:02.265Z,11.68
2022-11-17T15:22:30.109Z,11.91
2022-11-17T15:24:56.804Z,11.78
2022-11-17T15:27:23.745Z,11.70
2022-11-17T15:29:50.464Z,11.60
2022-11-17T15:32:17.554Z,11.68
2022-11-17T15:34:44.173Z,12.03
2022-11-17T15:37:10.858Z,12.16
2022-11-17T15:39:37.525Z,11.57
2022-11-17T15:42:04.227Z,11.27
2022-11-17T15:44:30.925Z,11.65
2022-11-17T15:46:57.635Z,11.54
2022-11-17T15:49:25.676Z,11.61
2022-11-17T15:51:52.493Z,11.48
2022-11-17T15:54:20.973Z,11.89
2022-11-17T15:56:48.599Z,11.82
2022-11-17T15:59:15.541Z,11.30
2022-11-17T16:01:42.910Z,11.29
2022-11-17T16:04:15.846Z,11.19
2022-11-17T16:06:45.108Z,11.20
2022-11-17T16:09:13.079Z,11.35
2022-11-17T16:11:41.264Z,11.46
2022-11-17T16:14:09.457Z,11.30
2022-11-17T16:16:39.631Z,11.41
2022-11-17T16:19:07.090Z,11.50
2022-11-17T16:21:34.046Z,11.54
2022-11-17T16:24:01.970Z,11.67
2022-11-17T16:26:29.923Z,11.63
2022-11-17T16:28:58.999Z,11.58
2022-11-17T16:31:28.748Z,11.57
2022-11-17T16:33:58.642Z,11.61
2022-11-17T16:36:34.348Z,11.53
2022-11-17T16:39:05.772Z,11.39
2022-11-17T16:41:34.969Z,11.47
2022-11-17T16:44:02.810Z,11.62
2022-11-17T16:46:31.558Z,11.68
2022-11-17T16:49:06.811Z,11.77
2022-11-17T16:51:34.811Z,11.94
2022-11-17T16:54:04.142Z,11.92
2022-11-17T16:56:32.041Z,11.72
2022-11-17T16:58:59.276Z,11.65
2022-11-17T17:01:32.267Z,11.59
2022-11-17T17:04:04.729Z,11.61
2022-11-17T17:06:31.456Z,11.61
2022-11-17T17:09:00.245Z,11.56
2022-11-17T17:11:29.152Z,11.54
2022-11-17T17:13:58.979Z,11.78
2022-11-17T17:16:26.070Z,11.67
2022-11-17T17:18:59.468Z,11.76
2022-11-17T17:21:27.236Z,11.73
2022-11-17T17:23:54.018Z,11.53
2022-11-17T17:26:22.992Z,11.47
2022-11-17T17:28:51.829Z,11.57
2022-11-17T17:31:21.980Z,11.56
2022-11-17T17:33:50.488Z,11.39
2022-11-17T17:36:20.105Z,11.24
2022-11-17T17:38:53.364Z,11.40
2022-11-17T17:41:23.334Z,11.47
2022-11-17T17:43:56.718Z,11.33
2022-11-17T17:46:24.512Z,11.30
2022-11-17T17:48:51.205Z,11.49
2022-11-17T17:51:20.181Z,11.49
2022-11-17T17:53:50.396Z,11.60
2022-11-17T17:56:18.997Z,11.50
2022-11-17T17:58:48.702Z,11.39
2022-11-17T18:01:30.972Z,11.43
2022-11-17T18:04:04.279Z,11.58
2022-11-17T18:06:37.313Z,11.50
2022-11-17T18:09:05.490Z,11.68
2022-11-17T18:11:33.204Z,11.65
2022-11-17T18:14:00.504Z,11.57
2022-11-17T18:16:30.006Z,11.53
2022-11-17T18:18:59.372Z,11.44
2022-11-17T18:21:28.632Z,11.40
2022-11-17T18:23:56.770Z,11.33
2022-11-17T18:26:25.829Z,11.58
2022-11-17T18:29:18.332Z,11.39
2022-11-17T18:31:47.568Z,11.35
2022-11-17T18:34:21.078Z,11.37
2022-11-17T18:36:49.168Z,11.39
2022-11-17T18:39:16.552Z,11.33
2022-11-17T18:41:44.063Z,11.36
2022-11-17T18:44:15.379Z,11.69
2022-11-17T18:46:42.104Z,11.48
2022-11-17T18:49:09.006Z,11.65
2022-11-17T18:51:35.853Z,11.51
2022-11-17T18:54:03.709Z,11.63
2022-11-17T18:56:35.758Z,11.56
2022-11-17T18:59:11.054Z,11.40
2022-11-17T19:01:40.410Z,11.49
2022-11-17T19:04:07.460Z,11.60
2022-11-17T19:06:34.498Z,11.26
2022-11-17T19:09:01.458Z,11.04
2022-11-17T19:11:30.725Z,11.05
2022-11-17T19:13:59.158Z,11.23
2022-11-17T19:16:27.586Z,11.22
2022-11-17T19:18:55.976Z,11.50
2022-11-17T19:21:28.197Z,11.32
2022-11-17T19:23:58.224Z,11.33
2022-11-17T19:26:31.029Z,11.29
2022-11-17T19:28:59.888Z,11.53
2022-11-17T19:31:28.098Z,11.46
2022-11-17T19:33:55.878Z,11.34
2022-11-17T19:36:29.275Z,11.45
2022-11-17T19:38:58.021Z,11.74
2022-11-17T19:41:29.917Z,11.60
2022-11-17T19:43:58.912Z,11.42
2022-11-17T19:46:27.101Z,11.33
2022-11-17T19:48:55.229Z,11.49
2022-11-17T19:51:26.814Z,11.60
2022-11-17T19:53:55.787Z,11.78
2022-11-17T19:56:23.993Z,11.45
2022-11-17T19:58:51.451Z,11.44
2022-11-17T20:01:24.122Z,11.47
2022-11-17T20:03:51.533Z,11.39
2022-11-17T20:06:20.628Z,11.47
2022-11-17T20:08:48.308Z,11.42
2022-11-17T20:11:22.688Z,11.34
2022-11-17T20:13:49.822Z,11.53
2022-11-17T20:16:24.326Z,11.51
2022-11-17T20:18:53.980Z,11.04
2022-11-17T20:21:20.901Z,11.17
2022-11-17T20:23:49.231Z,11.18
2022-11-17T20:26:21.204Z,11.11
2022-11-17T20:28:48.068Z,10.95
2022-11-17T20:31:19.966Z,11.28
2022-11-17T20:33:48.380Z,11.28
2022-11-17T20:36:17.624Z,11.11
2022-11-17T20:38:45.004Z,11.19
2022-11-17T20:41:12.645Z,11.33
2022-11-17T20:43:39.385Z,11.38
2022-11-17T20:46:06.127Z,11.39
2022-11-17T20:48:35.231Z,11.34
2022-11-17T20:51:05.012Z,11.24
2022-11-17T20:53:35.343Z,11.32
2022-11-17T20:56:04.471Z,11.46
2022-11-17T20:58:31.423Z,11.36
2022-11-17T21:00:58.597Z,11.51
2022-11-17T21:03:27.589Z,11.72
2022-11-17T21:05:59.673Z,11.70
2022-11-17T21:08:29.420Z,11.75
2022-11-17T21:11:05.388Z,11.39
2022-11-17T21:13:33.736Z,11.19
2022-11-17T21:16:14.643Z,10.97
2022-11-17T21:18:46.917Z,11.04
2022-11-17T21:21:13.783Z,10.96
2022-11-17T21:23:41.392Z,10.95
2022-11-17T21:26:09.710Z,11.29
2022-11-17T21:28:37.442Z,11.43
2022-11-17T21:31:09.330Z,11.43
2022-11-17T21:33:36.908Z,11.17
2022-11-17T21:36:05.815Z,11.05
2022-11-17T21:38:32.761Z,11.29
2022-11-17T21:41:08.980Z,11.55
2022-11-17T21:43:37.075Z,11.62
2022-11-17T21:46:18.605Z,11.53
2022-11-17T21:48:46.752Z,11.23
2022-11-17T21:51:16.284Z,11.30
2022-11-17T21:53:43.978Z,11.32
2022-11-17T21:56:11.492Z,11.30
2022-11-17T21:58:38.533Z,11.17
2022-11-17T22:01:12.797Z,11.20
2022-11-17T22:03:41.916Z,11.21
2022-11-17T22:06:10.268Z,11.16
2022-11-17T22:08:38.904Z,11.06
2022-11-17T22:11:14.473Z,11.10
2022-11-17T22:13:41.769Z,10.67
2022-11-17T22:16:12.356Z,11.01
2022-11-17T22:18:41.177Z,10.99
2022-11-17T22:21:08.439Z,10.68
2022-11-17T22:23:35.160Z,10.94
2022-11-17T22:26:05.021Z,10.81
2022-11-17T22:28:33.447Z,10.64
2022-11-17T22:31:05.716Z,10.72
2022-11-17T22:33:32.814Z,10.78
2022-11-17T22:36:00.490Z,11.12
2022-11-17T22:38:29.409Z,11.09
2022-11-17T22:41:03.506Z,11.12
2022-11-17T22:43:31.263Z,11.00
2022-11-17T22:46:01.977Z,10.65
2022-11-17T22:48:28.949Z,10.98
2022-11-17T22:50:59.993Z,10.75
2022-11-17T22:53:27.512Z,11.23
2022-11-17T22:55:54.324Z,10.82
2022-11-17T22:58:23.897Z,10.63
2022-11-17T23:00:52.985Z,10.90
2022-11-17T23:03:19.652Z,10.60
2022-11-17T23:05:46.380Z,10.91
2022-11-17T23:08:13.019Z,11.12
2022-11-17T23:10:39.752Z,10.67
2022-11-17T23:13:06.494Z,10.65
2022-11-17T23:15:33.090Z,10.67
2022-11-17T23:17:59.737Z,10.66
2022-11-17T23:20:26.359Z,10.40
2022-11-17T23:22:54.046Z,10.91
2022-11-17T23:25:21.116Z,11.07
2022-11-17T23:27:47.882Z,10.85
2022-11-17T23:30:14.487Z,10.70
2022-11-17T23:32:41.044Z,10.64
2022-11-17T23:35:08.213Z,10.40
2022-11-17T23:37:35.206Z,10.51
2022-11-17T23:40:02.239Z,10.61
2022-11-17T23:42:32.408Z,10.75
2022-11-17T23:44:59.738Z,10.79
2022-11-17T23:47:26.430Z,10.87
2022-11-17T23:49:53.073Z,10.58
2022-11-17T23:52:19.754Z,10.71
2022-11-17T23:54:46.414Z,10.72
2022-11-17T23:57:13.034Z,10.94
2022-11-17T23:59:40.270Z,10.62
